INDIA METEOROLOGICAL DEPARTMENT, R.M.C. NEW DELHI
Dated:22 - 6 - 2017
METARS OF ALTERNATE AIRPORTS
Delhi      
VIDP 221800Z 25004KT 3500 HZ NSC 30/24 Q1003 NOSIG =
Amritsar   
VIAR 221800Z 00000KT 4500 BR FEW040 SCT100 27/27 Q1002 NOSIG=
Lucknow    
VILK 221730Z 00000KT 3000 HZ SCT020 BKN100 31/26 Q1001=
Jaipur     
VIJP 221800Z VRB02KT 4000 HZ SCT035 29/19 Q1005 NOSIG=
Ahmedabad  
VAAH 221800Z 30006KT 4000 FU SCT020 SCT080 32/24 Q1003 NOSIG=
Mumbai     
VABB 221700Z 17006KT 3000 HZ SCT018 SCT025 BKN100 28/26 Q1006 NOSIG=